createdAt,value
2018-05-11T00:00:56.619Z,10.83
2018-05-11T00:03:24.944Z,11.93
2018-05-11T00:05:53.078Z,10.50
2018-05-11T00:08:21.215Z,10.80
2018-05-11T00:10:49.519Z,11.97
2018-05-11T00:13:17.624Z,11.90
2018-05-11T00:15:45.731Z,11.47
2018-05-11T00:18:13.855Z,9.80
2018-05-11T00:20:41.994Z,10.10
2018-05-11T00:23:10.117Z,10.00
2018-05-11T00:25:38.242Z,10.70
2018-05-11T00:28:06.374Z,11.63
2018-05-11T00:30:34.508Z,11.67
2018-05-11T00:33:02.629Z,9.33
2018-05-11T00:35:30.767Z,10.03
2018-05-11T00:37:58.939Z,12.43
2018-05-11T00:40:27.311Z,10.50
2018-05-11T00:42:55.502Z,9.87
2018-05-11T00:45:23.647Z,11.73
2018-05-11T00:47:51.766Z,10.73
2018-05-11T00:50:19.892Z,10.50
2018-05-11T00:52:47.994Z,11.07
2018-05-11T00:55:28.006Z,11.23
2018-05-11T00:57:56.110Z,13.07
2018-05-11T01:00:24.215Z,13.27
2018-05-11T01:02:52.371Z,9.17
2018-05-11T01:05:20.489Z,12.83
2018-05-11T01:07:48.608Z,13.83
2018-05-11T01:10:16.750Z,10.03
2018-05-11T01:12:44.873Z,14.63
2018-05-11T01:15:12.994Z,9.20
2018-05-11T01:17:41.102Z,11.40
2018-05-11T01:20:09.254Z,12.40
2018-05-11T01:22:37.379Z,14.07
2018-05-11T01:25:05.505Z,11.37
2018-05-11T01:27:33.633Z,11.50
2018-05-11T01:30:01.765Z,10.70
2018-05-11T01:32:29.894Z,14.93
2018-05-11T01:34:58.036Z,13.13
2018-05-11T01:37:26.153Z,11.50
2018-05-11T01:39:55.143Z,13.40
2018-05-11T01:42:23.263Z,13.00
2018-05-11T01:44:51.415Z,10.83
2018-05-11T01:47:19.620Z,13.83
2018-05-11T01:49:47.801Z,12.53
2018-05-11T01:52:15.906Z,12.63
2018-05-11T01:54:44.049Z,12.80
2018-05-11T01:57:12.173Z,12.70
2018-05-11T01:59:40.411Z,13.67
2018-05-11T02:02:08.530Z,14.43
2018-05-11T02:04:36.681Z,12.33
2018-05-11T02:07:04.793Z,13.33
2018-05-11T02:09:32.933Z,12.87
2018-05-11T02:12:01.057Z,12.53
2018-05-11T02:14:29.187Z,20.13
2018-05-11T02:16:57.332Z,12.37
2018-05-11T02:19:25.456Z,15.37
2018-05-11T02:21:53.583Z,15.70
2018-05-11T02:24:21.711Z,12.47
2018-05-11T02:26:49.840Z,15.97
2018-05-11T02:29:17.970Z,14.67
2018-05-11T02:31:46.079Z,14.30
2018-05-11T02:34:14.202Z,15.57
2018-05-11T02:36:42.336Z,14.37
2018-05-11T02:39:10.584Z,16.63
2018-05-11T02:41:38.622Z,14.30
2018-05-11T02:44:06.770Z,15.47
2018-05-11T02:46:34.903Z,14.17
2018-05-11T02:49:03.030Z,15.57
2018-05-11T02:51:31.167Z,18.53
2018-05-11T02:53:59.313Z,13.63
2018-05-11T02:56:27.454Z,16.53
2018-05-11T02:58:55.553Z,14.93
2018-05-11T03:01:23.711Z,16.03
2018-05-11T03:03:51.829Z,13.00
2018-05-11T03:06:19.947Z,14.67
2018-05-11T03:08:48.076Z,14.97
2018-05-11T03:11:16.206Z,18.80
2018-05-11T03:13:44.356Z,15.47
2018-05-11T03:16:12.466Z,15.23
2018-05-11T03:18:40.630Z,14.37
2018-05-11T03:21:08.744Z,15.33
2018-05-11T03:23:36.883Z,14.40
2018-05-11T03:26:04.998Z,14.23
2018-05-11T03:28:33.125Z,17.50
2018-05-11T03:31:01.266Z,16.33
2018-05-11T03:33:29.394Z,16.43
2018-05-11T03:35:57.531Z,18.30
2018-05-11T03:38:25.849Z,15.00
2018-05-11T03:40:54.170Z,18.17
2018-05-11T03:43:22.297Z,16.50
2018-05-11T03:45:50.438Z,18.17
2018-05-11T03:48:18.590Z,13.77
2018-05-11T03:50:46.695Z,16.73
2018-05-11T03:53:14.841Z,17.10
2018-05-11T03:55:42.951Z,15.97
2018-05-11T03:58:11.085Z,17.50
2018-05-11T04:00:39.202Z,19.70
2018-05-11T04:03:19.155Z,19.43
2018-05-11T04:05:59.151Z,18.10
2018-05-11T04:08:48.126Z,20.60
2018-05-11T04:11:16.259Z,19.53
2018-05-11T04:13:44.404Z,20.37
2018-05-11T04:16:12.529Z,18.83
2018-05-11T04:18:40.674Z,19.30
2018-05-11T04:21:08.787Z,18.70
2018-05-11T04:23:36.925Z,17.47
2018-05-11T04:26:05.080Z,19.03
2018-05-11T04:28:33.208Z,21.17
2018-05-11T04:31:01.353Z,22.47
2018-05-11T04:33:29.512Z,18.40
2018-05-11T04:35:57.638Z,23.13
2018-05-11T04:38:25.768Z,18.70
2018-05-11T04:40:54.117Z,20.07
2018-05-11T04:43:22.241Z,18.17
2018-05-11T04:45:50.581Z,20.13
2018-05-11T04:48:18.715Z,20.37
2018-05-11T04:50:46.837Z,19.57
2018-05-11T04:53:14.970Z,21.67
2018-05-11T04:55:43.113Z,18.40
2018-05-11T04:58:11.247Z,17.63
2018-05-11T05:00:39.392Z,17.27
2018-05-11T05:03:07.596Z,23.67
2018-05-11T05:05:35.706Z,17.90
2018-05-11T05:08:03.834Z,24.03
2018-05-11T05:10:31.962Z,19.80
2018-05-11T05:13:00.098Z,21.70
2018-05-11T05:15:28.351Z,22.37
2018-05-11T05:17:56.511Z,23.20
2018-05-11T05:20:24.634Z,23.17
2018-05-11T05:22:52.766Z,23.17
2018-05-11T05:25:20.913Z,22.87
2018-05-11T05:27:49.047Z,23.83
2018-05-11T05:30:17.236Z,21.07
2018-05-11T05:32:45.391Z,21.50
2018-05-11T05:35:13.547Z,22.80
2018-05-11T05:37:41.697Z,21.33
2018-05-11T05:40:09.851Z,20.07
2018-05-11T05:42:37.985Z,19.80
2018-05-11T05:45:06.112Z,20.63
2018-05-11T05:47:34.252Z,18.47
2018-05-11T05:50:02.364Z,20.60
2018-05-11T05:52:30.505Z,18.10
2018-05-11T05:54:58.660Z,20.33
2018-05-11T05:57:26.781Z,20.63
2018-05-11T05:59:54.969Z,18.37
2018-05-11T06:02:23.350Z,20.37
2018-05-11T06:04:51.390Z,21.73
2018-05-11T06:07:19.517Z,23.90
2018-05-11T06:09:51.075Z,25.40
2018-05-11T06:12:19.216Z,22.70
2018-05-11T06:14:47.345Z,29.30
2018-05-11T06:17:15.477Z,31.40
2018-05-11T06:19:43.608Z,26.80
2018-05-11T06:22:11.731Z,30.43
2018-05-11T06:24:39.903Z,28.20
2018-05-11T06:27:08.003Z,32.43
2018-05-11T06:29:36.152Z,26.97
2018-05-11T06:32:04.291Z,25.63
2018-05-11T06:34:32.406Z,32.03
2018-05-11T06:37:00.521Z,32.77
2018-05-11T06:39:29.037Z,23.17
2018-05-11T06:41:57.187Z,26.93
2018-05-11T06:44:25.296Z,23.57
2018-05-11T06:46:53.669Z,24.07
2018-05-11T06:49:21.799Z,20.70
2018-05-11T06:51:49.926Z,26.70
2018-05-11T06:54:18.315Z,24.87
2018-05-11T06:56:46.429Z,25.20
2018-05-11T06:59:14.553Z,22.37
2018-05-11T07:01:42.829Z,23.03
2018-05-11T07:04:10.962Z,21.67
2018-05-11T07:06:39.102Z,26.03
2018-05-11T07:09:07.439Z,28.47
2018-05-11T07:11:35.576Z,25.17
2018-05-11T07:14:03.705Z,28.33
2018-05-11T07:16:31.935Z,27.40
2018-05-11T07:19:00.054Z,31.07
2018-05-11T07:21:28.189Z,30.53
2018-05-11T07:23:56.333Z,23.33
2018-05-11T07:26:24.457Z,24.13
2018-05-11T07:28:52.585Z,21.87
2018-05-11T07:31:20.723Z,25.43
2018-05-11T07:33:48.854Z,25.33
2018-05-11T07:36:17.251Z,28.40
2018-05-11T07:38:45.434Z,25.03
2018-05-11T07:41:16.868Z,23.50
2018-05-11T07:43:44.989Z,24.67
2018-05-11T07:46:13.135Z,25.70
2018-05-11T07:48:41.278Z,23.97
2018-05-11T07:51:09.417Z,25.03
2018-05-11T07:53:37.532Z,25.33
2018-05-11T07:56:05.684Z,27.40
2018-05-11T07:58:33.841Z,23.00
2018-05-11T08:01:01.959Z,20.47
2018-05-11T08:03:30.094Z,22.20
2018-05-11T08:05:59.238Z,22.67
2018-05-11T08:08:27.365Z,25.37
2018-05-11T08:10:55.485Z,22.97
2018-05-11T08:13:23.866Z,22.63
2018-05-11T08:15:52.001Z,19.27
2018-05-11T08:18:20.147Z,20.77
2018-05-11T08:20:48.295Z,32.30
2018-05-11T08:23:16.426Z,30.37
2018-05-11T08:25:44.545Z,26.17
2018-05-11T08:28:12.670Z,27.60
2018-05-11T08:30:40.799Z,29.97
2018-05-11T08:33:08.943Z,22.90
2018-05-11T08:35:37.069Z,22.17
2018-05-11T08:38:05.207Z,20.13
2018-05-11T08:40:33.348Z,23.87
2018-05-11T08:43:01.506Z,22.40
2018-05-11T08:45:29.622Z,19.33
2018-05-11T08:47:57.786Z,21.03
2018-05-11T08:50:25.918Z,22.93
2018-05-11T08:52:54.041Z,23.03
2018-05-11T08:55:22.169Z,24.77
2018-05-11T08:57:50.316Z,20.40
2018-05-11T09:00:18.460Z,22.03
2018-05-11T09:02:46.581Z,21.13
2018-05-11T09:05:14.741Z,21.53
2018-05-11T09:07:42.850Z,19.63
2018-05-11T09:10:10.966Z,21.33
2018-05-11T09:12:39.146Z,21.67
2018-05-11T09:15:07.283Z,18.87
2018-05-11T09:17:35.425Z,23.77
2018-05-11T09:20:03.764Z,22.63
2018-05-11T09:22:31.867Z,22.50
2018-05-11T09:24:59.980Z,23.90
2018-05-11T09:27:28.129Z,24.30
2018-05-11T09:29:56.247Z,27.13
2018-05-11T09:32:24.390Z,18.83
2018-05-11T09:34:52.524Z,21.67
2018-05-11T09:37:20.659Z,18.83
2018-05-11T09:39:48.862Z,19.23
2018-05-11T09:42:16.933Z,17.77
2018-05-11T09:44:45.075Z,23.40
2018-05-11T09:47:13.210Z,21.10
2018-05-11T09:49:41.386Z,18.47
2018-05-11T09:52:09.504Z,19.13
2018-05-11T09:54:37.649Z,21.47
2018-05-11T09:57:05.781Z,21.87
2018-05-11T09:59:33.905Z,22.53
2018-05-11T10:02:02.035Z,21.07
2018-05-11T10:04:30.151Z,23.33
2018-05-11T10:06:58.295Z,19.57
2018-05-11T10:09:26.413Z,24.47
2018-05-11T10:11:54.554Z,22.30
2018-05-11T10:14:22.688Z,20.57
2018-05-11T10:16:50.794Z,24.00
2018-05-11T10:19:18.937Z,23.00
2018-05-11T10:21:47.098Z,22.07
2018-05-11T10:24:15.199Z,21.67
2018-05-11T10:26:43.322Z,22.83
2018-05-11T10:29:11.562Z,18.30
2018-05-11T10:31:39.579Z,22.40
2018-05-11T10:34:07.711Z,21.80
2018-05-11T10:36:35.850Z,37.80
2018-05-11T10:39:03.969Z,28.83
2018-05-11T10:41:32.123Z,27.93
2018-05-11T10:44:00.337Z,27.10
2018-05-11T10:46:28.466Z,30.27
2018-05-11T10:48:56.624Z,25.03
2018-05-11T10:51:24.741Z,24.10
2018-05-11T10:53:52.869Z,19.97
2018-05-11T10:56:21.025Z,21.00
2018-05-11T10:58:49.156Z,22.23
2018-05-11T11:01:17.281Z,21.33
2018-05-11T11:03:45.417Z,21.07
2018-05-11T11:06:13.554Z,23.47
2018-05-11T11:08:41.695Z,19.40
2018-05-11T11:11:09.825Z,21.60
2018-05-11T11:13:37.968Z,19.53
2018-05-11T11:16:06.069Z,19.00
2018-05-11T11:18:34.221Z,22.10
2018-05-11T11:21:02.341Z,22.60
2018-05-11T11:23:30.450Z,18.50
2018-05-11T11:25:58.653Z,15.23
2018-05-11T11:28:26.713Z,20.53
2018-05-11T11:30:56.826Z,20.77
2018-05-11T11:33:24.966Z,16.37
2018-05-11T11:35:53.075Z,21.60
2018-05-11T11:38:21.191Z,17.30
2018-05-11T11:40:49.317Z,20.17
2018-05-11T11:43:17.445Z,19.90
2018-05-11T11:45:45.578Z,17.00
2018-05-11T11:48:13.734Z,21.97
2018-05-11T11:50:41.839Z,19.70
2018-05-11T11:53:13.578Z,16.53
2018-05-11T11:55:41.962Z,17.10
2018-05-11T11:58:10.070Z,20.63
2018-05-11T12:00:41.515Z,17.53
2018-05-11T12:03:09.688Z,20.93
2018-05-11T12:05:37.810Z,19.07
2018-05-11T12:08:05.946Z,15.17
2018-05-11T12:10:34.085Z,18.60
2018-05-11T12:13:02.229Z,13.50
2018-05-11T12:15:30.345Z,16.70
2018-05-11T12:17:58.497Z,14.77
2018-05-11T12:20:26.655Z,18.33
2018-05-11T12:22:54.757Z,17.03
2018-05-11T12:25:22.896Z,16.33
2018-05-11T12:27:51.035Z,12.73
2018-05-11T12:30:19.154Z,13.67
2018-05-11T12:32:47.272Z,14.90
2018-05-11T12:35:15.399Z,18.03
2018-05-11T12:37:43.535Z,11.83
2018-05-11T12:40:11.684Z,11.77
2018-05-11T12:42:39.778Z,9.83
2018-05-11T12:45:07.895Z,12.40
2018-05-11T12:47:36.042Z,14.67
2018-05-11T12:50:04.155Z,12.17
2018-05-11T12:52:35.444Z,12.63
2018-05-11T12:55:03.577Z,15.93
2018-05-11T12:57:31.719Z,14.67
2018-05-11T12:59:59.836Z,18.17
2018-05-11T13:02:27.976Z,13.90
2018-05-11T13:04:56.110Z,13.10
2018-05-11T13:07:24.251Z,12.10
2018-05-11T13:09:52.390Z,13.70
2018-05-11T13:12:20.549Z,11.33
2018-05-11T13:14:48.680Z,20.67
2018-05-11T13:17:16.796Z,14.97
2018-05-11T13:19:44.909Z,12.77
2018-05-11T13:22:13.025Z,13.13
2018-05-11T13:24:41.203Z,10.43
2018-05-11T13:27:09.394Z,10.27
2018-05-11T13:29:37.579Z,10.97
2018-05-11T13:32:05.755Z,12.87
2018-05-11T13:34:33.953Z,10.77
2018-05-11T13:37:02.534Z,11.53
2018-05-11T13:39:30.690Z,13.00
2018-05-11T13:41:58.797Z,12.53
2018-05-11T13:44:27.033Z,12.30
2018-05-11T13:46:55.177Z,11.27
2018-05-11T13:49:23.289Z,13.70
2018-05-11T13:51:51.424Z,11.53
2018-05-11T13:54:19.571Z,10.73
2018-05-11T13:56:47.688Z,10.07
2018-05-11T13:59:16.006Z,10.10
2018-05-11T14:01:44.208Z,9.80
2018-05-11T14:04:12.378Z,9.43
2018-05-11T14:06:40.497Z,10.60
2018-05-11T14:09:08.659Z,8.70
2018-05-11T14:11:36.772Z,9.53
2018-05-11T14:14:04.912Z,11.47
2018-05-11T14:16:33.037Z,8.93
2018-05-11T14:19:01.180Z,7.73
2018-05-11T14:21:29.323Z,10.17
2018-05-11T14:23:57.431Z,8.83
2018-05-11T14:26:25.571Z,9.17
2018-05-11T14:28:53.667Z,7.53
2018-05-11T14:31:21.958Z,7.80
2018-05-11T14:33:50.094Z,6.30
2018-05-11T14:36:18.215Z,11.10
2018-05-11T14:38:46.355Z,6.90
2018-05-11T14:41:14.537Z,7.60
2018-05-11T14:43:42.752Z,7.20
2018-05-11T14:46:10.907Z,6.27
2018-05-11T14:48:39.020Z,7.13
2018-05-11T14:51:07.129Z,7.20
2018-05-11T14:53:35.265Z,8.13
2018-05-11T14:56:03.385Z,5.87
2018-05-11T14:58:31.527Z,6.63
2018-05-11T15:00:59.651Z,7.87
2018-05-11T15:03:27.766Z,7.13
2018-05-11T15:05:55.868Z,7.67
2018-05-11T15:08:23.993Z,8.73
2018-05-11T15:10:52.109Z,6.57
2018-05-11T15:13:20.225Z,6.77
2018-05-11T15:15:48.350Z,5.20
2018-05-11T15:18:16.471Z,6.27
2018-05-11T15:20:44.614Z,8.03
2018-05-11T15:23:12.737Z,4.33
2018-05-11T15:25:40.881Z,4.07
2018-05-11T15:28:09.011Z,4.53
2018-05-11T15:30:37.552Z,4.60
2018-05-11T15:33:05.674Z,5.40
2018-05-11T15:35:33.794Z,4.63
2018-05-11T15:38:01.907Z,6.40
2018-05-11T15:40:30.157Z,3.77
2018-05-11T15:42:58.127Z,4.70
2018-05-11T15:45:26.261Z,6.40
2018-05-11T15:47:54.400Z,5.90
2018-05-11T15:50:22.526Z,7.70
2018-05-11T15:52:50.649Z,5.17
2018-05-11T15:55:18.765Z,6.83
2018-05-11T15:57:46.880Z,7.73
2018-05-11T16:00:18.845Z,5.33
2018-05-11T16:02:46.968Z,4.33
2018-05-11T16:05:15.154Z,6.33
2018-05-11T16:07:43.376Z,4.23
2018-05-11T16:10:11.474Z,5.80
2018-05-11T16:12:39.735Z,7.53
2018-05-11T16:15:07.718Z,7.03
2018-05-11T16:17:35.837Z,6.00
2018-05-11T16:20:03.983Z,4.33
2018-05-11T16:22:32.356Z,5.50
2018-05-11T16:25:00.451Z,4.43
2018-05-11T16:27:28.578Z,5.53
2018-05-11T16:29:56.727Z,5.17
2018-05-11T16:32:24.849Z,4.13
2018-05-11T16:34:52.965Z,4.53
2018-05-11T16:37:21.089Z,6.13
2018-05-11T16:39:49.228Z,6.73
2018-05-11T16:42:17.356Z,4.67
2018-05-11T16:44:45.465Z,6.40
2018-05-11T16:47:13.562Z,3.90
2018-05-11T16:49:41.748Z,4.80
2018-05-11T16:52:09.903Z,6.47
2018-05-11T16:54:37.996Z,4.53
2018-05-11T16:57:06.109Z,6.67
2018-05-11T16:59:34.245Z,6.80
2018-05-11T17:02:02.360Z,5.57
2018-05-11T17:04:30.469Z,6.97
2018-05-11T17:06:58.597Z,4.03
2018-05-11T17:09:26.727Z,5.93
2018-05-11T17:11:54.868Z,3.80
2018-05-11T17:14:22.975Z,3.53
2018-05-11T17:16:51.086Z,7.00
2018-05-11T17:19:19.339Z,6.87
2018-05-11T17:21:47.540Z,6.73
2018-05-11T17:24:15.657Z,6.07
2018-05-11T17:26:43.770Z,6.20
2018-05-11T17:29:11.904Z,4.53
2018-05-11T17:31:40.036Z,3.20
2018-05-11T17:34:08.160Z,3.93
2018-05-11T17:36:36.267Z,4.00
2018-05-11T17:39:04.408Z,4.93
2018-05-11T17:41:32.552Z,3.43
2018-05-11T17:44:00.612Z,2.83
2018-05-11T17:46:28.733Z,4.53
2018-05-11T17:48:56.868Z,4.30
2018-05-11T17:51:25.009Z,3.33
2018-05-11T17:53:53.125Z,5.17
2018-05-11T17:56:21.296Z,3.50
2018-05-11T17:58:49.456Z,6.53
2018-05-11T18:01:17.573Z,4.03
2018-05-11T18:03:45.676Z,7.27
2018-05-11T18:06:14.061Z,4.73
2018-05-11T18:08:42.167Z,6.00
2018-05-11T18:11:10.267Z,4.50
2018-05-11T18:13:39.306Z,7.47
2018-05-11T18:16:07.657Z,5.23
2018-05-11T18:18:35.799Z,5.13
2018-05-11T18:21:03.913Z,4.47
2018-05-11T18:23:32.019Z,6.07
2018-05-11T18:26:00.120Z,5.13
2018-05-11T18:28:28.267Z,7.23
2018-05-11T18:30:56.447Z,6.87
2018-05-11T18:33:24.516Z,5.87
2018-05-11T18:35:52.633Z,6.57
2018-05-11T18:38:20.739Z,5.70
2018-05-11T18:40:48.857Z,6.27
2018-05-11T18:43:16.982Z,5.87
2018-05-11T18:45:45.102Z,5.13
2018-05-11T18:48:13.221Z,5.70
2018-05-11T18:50:41.334Z,4.67
2018-05-11T18:53:09.648Z,5.80
2018-05-11T18:55:37.582Z,7.30
2018-05-11T18:58:05.869Z,4.57
2018-05-11T19:00:34.069Z,6.77
2018-05-11T19:03:02.267Z,5.20
2018-05-11T19:05:30.484Z,5.77
2018-05-11T19:07:58.593Z,6.13
2018-05-11T19:10:26.719Z,6.27
2018-05-11T19:12:54.856Z,5.70
2018-05-11T19:15:22.969Z,7.07
2018-05-11T19:17:51.112Z,6.83
2018-05-11T19:20:19.225Z,6.73
2018-05-11T19:22:47.357Z,5.30
2018-05-11T19:25:15.462Z,10.93
2018-05-11T19:27:43.596Z,5.47
2018-05-11T19:30:11.704Z,6.17
2018-05-11T19:32:39.811Z,6.60
2018-05-11T19:35:07.931Z,8.73
2018-05-11T19:37:36.045Z,7.83
2018-05-11T19:40:04.180Z,6.23
2018-05-11T19:42:32.314Z,6.77
2018-05-11T19:45:00.554Z,9.33
2018-05-11T19:47:28.753Z,9.33
2018-05-11T19:49:57.044Z,7.87
2018-05-11T19:52:25.189Z,8.93
2018-05-11T19:54:53.330Z,6.93
2018-05-11T19:57:21.479Z,5.80
2018-05-11T19:59:49.586Z,8.47
2018-05-11T20:02:17.674Z,7.60
2018-05-11T20:04:45.906Z,8.43
2018-05-11T20:07:14.095Z,8.60
2018-05-11T20:09:42.259Z,7.07
2018-05-11T20:12:10.599Z,8.90
2018-05-11T20:14:38.727Z,9.27
2018-05-11T20:17:06.846Z,8.03
2018-05-11T20:19:34.992Z,10.30
2018-05-11T20:22:03.097Z,7.50
2018-05-11T20:24:31.236Z,8.17
2018-05-11T20:26:59.375Z,8.67
2018-05-11T20:29:27.503Z,6.63
2018-05-11T20:31:55.612Z,5.50
2018-05-11T20:34:23.755Z,5.53
2018-05-11T20:36:51.877Z,7.17
2018-05-11T20:39:20.374Z,5.47
2018-05-11T20:41:48.518Z,6.67
2018-05-11T20:44:16.638Z,8.00
2018-05-11T20:46:44.738Z,5.57
2018-05-11T20:49:12.869Z,5.87
2018-05-11T20:51:41.001Z,8.23
2018-05-11T20:54:09.131Z,7.03
2018-05-11T20:56:37.242Z,6.80
2018-05-11T20:59:05.346Z,5.60
2018-05-11T21:01:33.480Z,9.07
2018-05-11T21:04:01.608Z,8.13
2018-05-11T21:06:29.744Z,6.93
2018-05-11T21:08:57.894Z,6.53
2018-05-11T21:11:26.055Z,6.70
2018-05-11T21:13:57.779Z,6.60
2018-05-11T21:16:25.905Z,7.13
2018-05-11T21:18:54.020Z,6.67
2018-05-11T21:21:22.163Z,7.20
2018-05-11T21:23:50.310Z,5.30
2018-05-11T21:26:18.436Z,7.33
2018-05-11T21:28:46.534Z,6.50
2018-05-11T21:31:14.664Z,6.37
2018-05-11T21:33:42.779Z,5.87
2018-05-11T21:36:10.916Z,6.87
2018-05-11T21:38:39.026Z,6.87
2018-05-11T21:41:07.720Z,6.50
2018-05-11T21:43:35.817Z,7.40
2018-05-11T21:46:03.941Z,8.43
2018-05-11T21:48:32.124Z,7.07
2018-05-11T21:51:00.336Z,6.07
2018-05-11T21:53:28.492Z,8.30
2018-05-11T21:55:56.859Z,6.70
2018-05-11T21:58:25.037Z,9.17
2018-05-11T22:00:53.190Z,7.03
2018-05-11T22:03:21.389Z,9.17
2018-05-11T22:05:49.682Z,6.30
2018-05-11T22:08:17.683Z,6.07
2018-05-11T22:10:46.025Z,7.47
2018-05-11T22:13:14.145Z,7.10
2018-05-11T22:15:42.258Z,7.60
2018-05-11T22:18:10.394Z,8.47
2018-05-11T22:20:38.491Z,6.40
2018-05-11T22:23:06.617Z,5.97
2018-05-11T22:25:34.730Z,6.70
2018-05-11T22:28:02.866Z,9.30
2018-05-11T22:30:30.981Z,5.90
2018-05-11T22:32:59.127Z,6.17
2018-05-11T22:35:27.262Z,6.97
2018-05-11T22:37:55.388Z,7.03
2018-05-11T22:40:23.534Z,8.83
2018-05-11T22:42:53.537Z,9.70
2018-05-11T22:45:21.650Z,8.07
2018-05-11T22:47:49.771Z,6.83
2018-05-11T22:50:17.888Z,7.73
2018-05-11T22:52:46.008Z,5.63
2018-05-11T22:55:14.133Z,6.83
2018-05-11T22:57:42.252Z,9.37
2018-05-11T23:00:10.368Z,6.53
2018-05-11T23:02:38.528Z,6.43
2018-05-11T23:05:06.644Z,8.87
2018-05-11T23:07:34.758Z,7.77
2018-05-11T23:10:02.879Z,5.37
2018-05-11T23:12:30.980Z,8.27
2018-05-11T23:14:59.111Z,7.37
2018-05-11T23:17:27.234Z,6.27
2018-05-11T23:19:55.355Z,7.67
2018-05-11T23:22:23.501Z,5.53
2018-05-11T23:24:51.615Z,10.83
2018-05-11T23:27:19.752Z,7.17
2018-05-11T23:29:47.972Z,8.33
2018-05-11T23:32:16.108Z,6.83
2018-05-11T23:34:44.215Z,10.77
2018-05-11T23:37:12.360Z,6.57
2018-05-11T23:39:40.506Z,7.73
2018-05-11T23:42:08.636Z,8.50
2018-05-11T23:44:36.733Z,7.10
2018-05-11T23:47:04.884Z,6.63
2018-05-11T23:49:32.975Z,7.43
2018-05-11T23:52:04.304Z,8.17
2018-05-11T23:54:32.453Z,8.83
2018-05-11T23:57:00.592Z,11.47
2018-05-11T23:59:28.709Z,11.00
